Time;durP1;ratioP1;P1;durP2;ratioP2;P2;SDS_P1;SDS_P2;PMS_P1;PMS_P2;Temp;Humidity;BMP_temperature;BMP_pressure;BME280_temperature;BME280_humidity;BME280_pressure;Samples;Min_cycle;Max_cycle;Signal;HPM_P1;HPM_P2
2022/01/25 00:24:23;;;;;;;18.87;15.53;;;5.40;99.90;;;;;;5008848;28;20433;-79
2022/01/25 00:27:05;;;;;;;18.37;16.00;;;5.40;99.90;;;;;;5018395;28;20456;-79
2022/01/25 00:29:46;;;;;;;18.20;14.30;;;5.40;99.90;;;;;;5019120;28;20564;-79
2022/01/25 00:32:14;;;;;;;16.03;14.10;;;5.40;99.90;;;;;;5018410;28;20480;-79
2022/01/25 00:34:42;;;;;;;17.97;14.17;;;5.30;99.90;;;;;;5018198;28;20467;-79
2022/01/25 00:37:10;;;;;;;21.40;17.43;;;5.40;99.90;;;;;;5019449;28;20494;-79
2022/01/25 00:39:37;;;;;;;27.20;14.57;;;5.30;99.90;;;;;;5017653;28;20486;-79
2022/01/25 00:42:05;;;;;;;20.33;15.50;;;5.30;99.90;;;;;;5017659;28;20536;-79
2022/01/25 00:44:36;;;;;;;18.60;15.70;;;5.30;99.90;;;;;;5022213;28;20477;-79
2022/01/25 00:47:05;;;;;;;21.03;15.53;;;5.40;99.90;;;;;;5037192;28;20460;-78
2022/01/25 00:49:35;;;;;;;19.13;16.57;;;5.40;99.90;;;;;;5022670;28;20487;-79
2022/01/25 00:52:19;;;;;;;19.63;15.63;;;5.40;99.90;;;;;;5038253;28;20936;-79
2022/01/25 00:54:47;;;;;;;24.20;15.60;;;5.40;99.90;;;;;;5018521;28;20470;-79
2022/01/25 00:57:15;;;;;;;19.47;16.40;;;5.40;99.90;;;;;;5038517;28;20492;-79
2022/01/25 00:59:42;;;;;;;21.93;16.23;;;5.40;99.90;;;;;;5052605;28;20472;-78
2022/01/25 01:02:11;;;;;;;26.77;18.33;;;5.40;99.90;;;;;;5050930;28;20519;-79
2022/01/25 01:04:41;;;;;;;19.20;15.27;;;5.50;99.90;;;;;;5053524;28;20451;-81
2022/01/25 01:07:12;;;;;;;18.67;16.40;;;5.50;99.90;;;;;;5036568;28;20461;-79
2022/01/25 01:09:41;;;;;;;22.90;17.07;;;5.40;99.90;;;;;;5033309;28;20666;-79
2022/01/25 01:12:13;;;;;;;18.43;15.57;;;5.50;99.90;;;;;;5028802;28;20489;-78
2022/01/25 01:14:56;;;;;;;21.10;15.50;;;5.40;99.90;;;;;;5013105;28;20551;-79
2022/01/25 01:28:50;;;;;;;20.43;16.20;;;5.40;99.90;;;;;;5042147;28;20486;-79
2022/01/25 01:29:10;;;;;;;21.10;15.70;;;5.30;99.90;;;;;;5019017;28;20502;-80
2022/01/25 01:31:53;;;;;;;25.17;18.63;;;5.30;99.90;;;;;;5018371;28;20451;-79
2022/01/25 01:34:44;;;;;;;21.87;15.80;;;5.30;99.90;;;;;;5022034;28;20830;-79
2022/01/25 01:40:19;;;;;;;22.53;16.40;;;5.30;99.90;;;;;;5030883;28;20470;-79
2022/01/25 01:43:03;;;;;;;20.90;16.07;;;5.30;99.90;;;;;;5030174;28;20482;-78
2022/01/25 01:45:43;;;;;;;27.30;18.40;;;5.30;99.90;;;;;;4997349;28;20441;-78
2022/01/25 01:48:15;;;;;;;22.10;17.73;;;5.20;99.90;;;;;;5016984;28;20452;-79
2022/01/25 01:50:42;;;;;;;31.83;18.13;;;5.20;99.90;;;;;;5037270;28;20478;-79
2022/01/25 01:53:09;;;;;;;25.00;19.90;;;5.30;99.90;;;;;;5028152;28;20458;-78
2022/01/25 01:55:38;;;;;;;22.40;18.37;;;5.30;99.90;;;;;;5034079;28;20459;-79
2022/01/25 01:58:05;;;;;;;24.33;19.17;;;5.30;99.90;;;;;;5029536;28;20453;-79
2022/01/25 02:00:37;;;;;;;24.20;18.07;;;5.30;99.90;;;;;;5017341;28;20482;-79
2022/01/25 02:03:04;;;;;;;23.37;18.20;;;5.40;99.90;;;;;;5016923;28;20456;-79
2022/01/25 02:05:32;;;;;;;28.53;18.10;;;5.30;99.90;;;;;;5020930;28;20508;-80
2022/01/25 02:08:00;;;;;;;26.87;19.13;;;5.30;99.90;;;;;;5037302;28;20464;-79
2022/01/25 02:10:27;;;;;;;23.53;19.73;;;5.40;99.90;;;;;;5034684;28;20476;-78
2022/01/25 02:12:56;;;;;;;35.50;22.73;;;5.40;99.90;;;;;;5014261;28;20532;-78
2022/01/25 02:15:25;;;;;;;34.60;23.80;;;5.30;99.90;;;;;;5017407;28;20447;-80
2022/01/25 02:23:25;;;;;;;39.67;24.23;;;5.30;99.90;;;;;;5036239;28;20522;-80
2022/01/25 02:25:55;;;;;;;38.50;22.50;;;5.30;99.90;;;;;;5037414;28;20456;-79
2022/01/25 02:28:23;;;;;;;37.47;22.30;;;5.40;99.90;;;;;;5017504;28;20849;-79
2022/01/25 02:30:50;;;;;;;43.10;24.47;;;5.40;99.90;;;;;;5025463;28;20821;-79
2022/01/25 02:33:17;;;;;;;35.50;22.43;;;5.40;99.90;;;;;;5031662;28;20543;-79
2022/01/25 02:35:45;;;;;;;36.43;21.63;;;5.40;99.90;;;;;;5016693;28;20464;-79
2022/01/25 02:38:14;;;;;;;39.13;23.30;;;5.50;99.90;;;;;;5024183;28;20851;-79
2022/01/25 02:40:41;;;;;;;39.43;23.43;;;5.50;99.90;;;;;;5035481;28;20474;-79
2022/01/25 02:43:08;;;;;;;41.03;24.30;;;5.40;99.90;;;;;;5033484;28;20465;-78
2022/01/25 02:45:36;;;;;;;54.17;27.40;;;5.40;99.90;;;;;;5035713;28;20453;-79
2022/01/25 02:50:51;;;;;;;58.43;29.13;;;5.40;99.90;;;;;;5058186;22;20534;-81
2022/01/25 02:53:18;;;;;;;69.07;34.20;;;5.40;99.90;;;;;;5037678;28;20473;-82
2022/01/25 02:55:45;;;;;;;63.20;33.00;;;5.40;99.90;;;;;;5037452;28;20454;-82
2022/01/25 02:58:12;;;;;;;69.47;32.73;;;5.40;99.90;;;;;;5039294;28;20477;-82
2022/01/25 03:00:39;;;;;;;58.23;31.03;;;5.30;99.90;;;;;;5036865;28;20860;-81
2022/01/25 03:03:06;;;;;;;61.07;31.13;;;5.40;99.90;;;;;;5037266;28;20455;-82
2022/01/25 03:05:33;;;;;;;61.17;33.20;;;5.30;99.90;;;;;;5036640;28;20460;-82
2022/01/25 03:08:01;;;;;;;71.53;35.40;;;5.20;99.90;;;;;;5036628;28;20458;-82
2022/01/25 03:10:35;;;;;;;47.10;26.00;;;5.30;99.90;;;;;;5035034;28;20487;-82
2022/01/25 03:13:02;;;;;;;40.57;24.37;;;5.30;99.90;;;;;;5037985;28;20457;-83
2022/01/25 03:15:53;;;;;;;35.63;22.73;;;5.30;99.90;;;;;;5038681;28;20548;-82
2022/01/25 03:18:37;;;;;;;48.00;25.83;;;5.20;99.90;;;;;;5038367;28;20474;-83
2022/01/25 03:21:17;;;;;;;78.37;36.10;;;5.20;99.90;;;;;;5038000;28;20470;-83
2022/01/25 03:23:45;;;;;;;81.70;40.30;;;5.30;99.90;;;;;;5030151;28;20450;-82
2022/01/25 03:26:12;;;;;;;65.67;35.00;;;5.10;99.90;;;;;;5032306;28;20508;-83
2022/01/25 03:28:39;;;;;;;58.67;32.77;;;5.10;99.90;;;;;;5038022;28;20457;-84
2022/01/25 03:31:06;;;;;;;77.60;36.43;;;5.10;99.90;;;;;;5038131;28;21091;-84
2022/01/25 03:33:33;;;;;;;42.00;23.93;;;5.10;99.90;;;;;;5038757;28;20455;-83
2022/01/25 03:36:00;;;;;;;39.37;23.37;;;5.20;99.90;;;;;;5037322;28;20466;-84
2022/01/25 03:38:27;;;;;;;31.23;20.80;;;5.20;99.90;;;;;;5038502;28;20458;-82
2022/01/25 03:40:55;;;;;;;43.77;26.67;;;5.20;99.90;;;;;;5026717;28;20482;-84
2022/01/25 03:43:22;;;;;;;46.40;26.33;;;5.20;99.90;;;;;;5017385;28;20478;-83
2022/01/25 03:46:00;;;;;;;40.23;24.10;;;5.20;99.90;;;;;;5034070;28;20512;-83
2022/01/25 03:51:11;;;;;;;48.00;25.70;;;5.20;99.90;;;;;;5051189;28;20561;-80
2022/01/25 03:53:37;;;;;;;48.50;26.70;;;5.20;99.90;;;;;;5047144;28;20451;-83
2022/01/25 03:56:06;;;;;;;43.00;25.67;;;5.30;99.90;;;;;;5038101;28;20456;-83
2022/01/25 03:58:33;;;;;;;46.53;26.17;;;5.30;99.90;;;;;;5037006;28;20451;-83
2022/01/25 04:01:00;;;;;;;42.40;24.67;;;5.30;99.90;;;;;;5037217;28;20468;-84
2022/01/25 04:03:32;;;;;;;42.40;25.80;;;5.30;99.90;;;;;;5037808;28;20446;-84
2022/01/25 04:05:59;;;;;;;36.67;23.40;;;5.20;99.90;;;;;;5038505;28;20458;-84
2022/01/25 04:08:26;;;;;;;41.67;24.47;;;5.20;99.90;;;;;;5037772;28;20848;-82
2022/01/25 04:10:52;;;;;;;45.10;23.23;;;5.20;99.90;;;;;;5038406;28;20538;-83
2022/01/25 04:13:21;;;;;;;34.03;20.70;;;5.10;99.90;;;;;;5034799;28;20456;-84
2022/01/25 04:15:49;;;;;;;37.53;23.03;;;5.10;99.90;;;;;;5018499;28;20469;-84
2022/01/25 04:18:31;;;;;;;34.13;22.00;;;5.10;99.90;;;;;;5028392;28;20864;-83
2022/01/25 04:21:06;;;;;;;34.37;21.47;;;5.10;99.90;;;;;;5037813;28;20470;-84
2022/01/25 04:26:17;;;;;;;30.07;19.50;;;5.20;99.90;;;;;;5040385;28;20517;-84
2022/01/25 04:28:45;;;;;;;28.00;19.77;;;5.20;99.90;;;;;;5038836;28;20461;-84
2022/01/25 04:31:15;;;;;;;28.93;20.70;;;5.30;99.90;;;;;;5037007;28;20528;-84
2022/01/25 04:33:54;;;;;;;29.23;19.43;;;5.20;99.90;;;;;;5038042;28;20449;-85
2022/01/25 04:36:53;;;;;;;29.77;19.67;;;5.30;99.90;;;;;;5037965;28;20463;-85
2022/01/25 04:50:34;;;;;;;29.17;21.23;;;5.30;99.90;;;;;;5041468;28;20553;-85
2022/01/25 04:53:09;;;;;;;34.20;20.60;;;5.20;99.90;;;;;;5042028;28;20450;-85
2022/01/25 04:55:42;;;;;;;27.83;20.33;;;5.20;99.90;;;;;;5041849;28;20904;-85
2022/01/25 04:58:15;;;;;;;31.23;20.47;;;5.10;99.90;;;;;;5041304;28;20562;-84
2022/01/25 05:00:45;;;;;;;30.03;21.00;;;5.20;99.90;;;;;;5040773;28;20477;-84
2022/01/25 05:03:18;;;;;;;35.77;24.53;;;5.20;99.90;;;;;;5039842;28;20486;-85
2022/01/25 05:05:55;;;;;;;30.83;19.30;;;5.10;99.90;;;;;;5042696;28;20846;-84
2022/01/25 05:08:32;;;;;;;22.13;14.17;;;5.10;99.90;;;;;;5051771;28;20448;-83
2022/01/25 05:11:05;;;;;;;25.80;18.10;;;7.50;99.90;;;;;;5046234;28;20513;-80
2022/01/25 05:13:42;;;;;;;21.70;16.90;;;8.10;99.90;;;;;;5038998;28;20540;-80
2022/01/25 05:16:26;;;;;;;23.87;17.03;;;8.30;99.90;;;;;;5022775;28;20879;-80
2022/01/25 05:19:02;;;;;;;23.73;15.53;;;9.00;99.90;;;;;;5036532;28;20502;-79
2022/01/25 05:24:14;;;;;;;28.17;17.10;;;7.70;99.90;;;;;;5043067;28;20821;-79
2022/01/25 05:26:40;;;;;;;30.03;18.27;;;7.30;99.90;;;;;;5045140;28;20451;-79
2022/01/25 05:29:08;;;;;;;26.50;18.10;;;6.80;99.90;;;;;;5043822;28;20454;-79
2022/01/25 05:31:37;;;;;;;27.37;18.20;;;6.50;99.90;;;;;;5043932;28;20452;-78
2022/01/25 05:34:04;;;;;;;23.90;17.87;;;6.20;99.90;;;;;;5045141;28;20523;-79
2022/01/25 05:36:31;;;;;;;32.50;24.00;;;6.10;99.90;;;;;;5044105;28;20436;-79
2022/01/25 05:39:11;;;;;;;24.00;18.50;;;6.00;99.90;;;;;;5040328;28;20455;-78
2022/01/25 05:41:40;;;;;;;29.77;19.63;;;5.90;99.90;;;;;;5041952;28;20822;-79
2022/01/25 05:47:14;;;;;;;36.50;23.60;;;5.80;99.90;;;;;;5038249;28;20434;-79
2022/01/25 05:49:43;;;;;;;37.50;23.63;;;5.50;99.90;;;;;;5024838;28;20518;-78
2022/01/25 05:52:19;;;;;;;38.90;24.07;;;5.40;99.90;;;;;;5023754;28;20494;-78
2022/01/25 05:54:46;;;;;;;47.13;27.20;;;5.30;99.90;;;;;;5022532;28;20518;-78
2022/01/25 05:57:13;;;;;;;45.03;25.60;;;5.20;99.90;;;;;;5025752;28;20505;-80
2022/01/25 05:59:40;;;;;;;46.03;26.33;;;5.20;99.90;;;;;;5039420;28;20478;-78
2022/01/25 06:02:07;;;;;;;50.57;28.10;;;5.10;99.90;;;;;;5034208;28;20470;-79
2022/01/25 06:04:35;;;;;;;56.30;27.70;;;5.10;99.90;;;;;;5028888;28;21039;-79
2022/01/25 06:07:02;;;;;;;46.83;27.60;;;5.20;99.90;;;;;;5039234;28;20460;-80
2022/01/25 06:09:29;;;;;;;49.13;27.67;;;5.10;99.90;;;;;;5038756;28;20470;-79
2022/01/25 06:11:56;;;;;;;61.07;27.90;;;5.10;99.90;;;;;;5033268;28;20488;-80
2022/01/25 06:14:23;;;;;;;52.67;29.67;;;5.10;99.90;;;;;;5034675;28;20526;-79
2022/01/25 06:16:50;;;;;;;52.13;27.83;;;4.80;99.90;;;;;;5035684;28;20457;-79
2022/01/25 06:19:17;;;;;;;51.60;27.50;;;4.80;99.90;;;;;;5038572;28;20555;-78
2022/01/25 06:21:45;;;;;;;59.40;29.90;;;4.90;99.90;;;;;;5036822;28;20456;-79
2022/01/25 06:24:12;;;;;;;53.93;27.17;;;4.90;99.90;;;;;;5037261;28;20556;-79
2022/01/25 06:26:39;;;;;;;56.67;29.30;;;5.00;99.90;;;;;;5038387;28;20457;-81
2022/01/25 06:29:06;;;;;;;58.37;28.77;;;4.90;99.90;;;;;;5038009;28;20453;-79
2022/01/25 06:31:32;;;;;;;54.43;27.63;;;4.90;99.90;;;;;;5037268;28;20454;-80
2022/01/25 06:34:00;;;;;;;57.60;28.00;;;4.90;99.90;;;;;;5037251;28;20459;-79
2022/01/25 06:36:27;;;;;;;57.53;28.80;;;4.90;99.90;;;;;;5037701;28;20457;-79
2022/01/25 06:38:55;;;;;;;58.10;30.60;;;4.90;99.90;;;;;;5036384;28;20489;-80
2022/01/25 06:41:22;;;;;;;55.00;28.47;;;4.90;99.90;;;;;;5037322;28;20486;-80
2022/01/25 06:43:49;;;;;;;58.10;30.50;;;5.00;99.90;;;;;;5036156;28;20461;-79
2022/01/25 06:46:15;;;;;;;53.73;28.97;;;5.00;99.90;;;;;;5037578;28;20452;-77
2022/01/25 06:48:42;;;;;;;49.60;27.43;;;5.10;99.90;;;;;;5037377;28;20460;-79
2022/01/25 06:51:09;;;;;;;55.17;27.43;;;5.20;99.90;;;;;;5033098;28;20492;-80
2022/01/25 06:53:36;;;;;;;62.47;29.90;;;5.20;99.90;;;;;;5027143;28;20471;-81
2022/01/25 06:56:06;;;;;;;51.43;28.43;;;5.20;99.90;;;;;;5037381;28;20453;-80
2022/01/25 06:58:33;;;;;;;41.60;25.83;;;5.20;99.90;;;;;;5037976;28;20495;-79
2022/01/25 07:01:00;;;;;;;53.00;28.10;;;5.30;99.90;;;;;;5038350;28;20495;-81
2022/01/25 07:03:27;;;;;;;48.77;29.13;;;5.20;99.90;;;;;;5036278;28;20454;-82
2022/01/25 07:05:54;;;;;;;43.87;25.03;;;5.10;99.90;;;;;;5037843;28;20467;-79
2022/01/25 07:08:21;;;;;;;51.27;26.67;;;5.00;99.90;;;;;;5036544;28;21009;-80
2022/01/25 07:10:48;;;;;;;48.70;27.47;;;5.10;99.90;;;;;;5036587;28;20478;-79
2022/01/25 07:13:16;;;;;;;50.00;29.20;;;5.00;99.90;;;;;;5031474;28;20472;-79
2022/01/25 07:15:42;;;;;;;50.17;28.87;;;5.00;99.90;;;;;;5034897;28;20462;-79
2022/01/25 07:18:09;;;;;;;48.77;27.00;;;5.10;99.90;;;;;;5035549;28;20482;-80
2022/01/25 07:20:36;;;;;;;50.93;27.63;;;5.10;99.90;;;;;;5035992;28;20598;-80
2022/01/25 07:23:03;;;;;;;46.10;28.37;;;5.20;99.90;;;;;;5034757;28;20469;-81
2022/01/25 07:25:30;;;;;;;54.63;30.87;;;5.10;99.90;;;;;;5037651;28;20453;-80
2022/01/25 07:27:57;;;;;;;57.60;31.90;;;5.20;99.90;;;;;;5043992;28;20449;-80
2022/01/25 07:30:25;;;;;;;53.60;29.93;;;5.00;99.90;;;;;;5040579;28;20474;-80
2022/01/25 07:32:58;;;;;;;52.73;29.20;;;5.10;99.90;;;;;;5044406;28;20449;-78
2022/01/25 07:35:24;;;;;;;52.73;29.93;;;5.10;99.90;;;;;;5040407;28;20457;-79
2022/01/25 07:37:51;;;;;;;48.97;29.27;;;5.10;99.90;;;;;;5034085;28;20483;-79
2022/01/25 07:40:18;;;;;;;49.30;27.50;;;5.10;99.90;;;;;;5035328;28;20559;-81
2022/01/25 07:42:46;;;;;;;51.00;30.63;;;5.10;99.90;;;;;;5035649;28;20458;-79
2022/01/25 07:45:13;;;;;;;50.93;28.80;;;5.10;99.90;;;;;;5035038;28;20887;-78
2022/01/25 07:47:41;;;;;;;48.07;28.73;;;5.20;99.90;;;;;;5035635;28;20449;-79
2022/01/25 07:50:10;;;;;;;51.57;27.37;;;5.10;99.90;;;;;;5034541;28;20570;-81
2022/01/25 07:52:37;;;;;;;43.67;26.90;;;5.00;99.90;;;;;;5035537;28;20458;-82
2022/01/25 07:55:05;;;;;;;52.53;29.60;;;5.20;99.90;;;;;;5034680;28;20449;-79
2022/01/25 07:57:32;;;;;;;42.77;24.37;;;5.10;99.90;;;;;;5034704;28;20492;-79
2022/01/25 07:59:59;;;;;;;36.83;23.80;;;5.00;99.90;;;;;;5035818;28;20470;-81
2022/01/25 08:02:26;;;;;;;41.13;25.37;;;5.00;99.90;;;;;;5035962;28;20533;-81
2022/01/25 08:04:54;;;;;;;39.37;25.70;;;5.00;99.90;;;;;;5034697;28;20446;-79
2022/01/25 08:07:21;;;;;;;46.53;26.87;;;5.10;99.90;;;;;;5035219;28;20480;-81
2022/01/25 08:09:48;;;;;;;42.00;24.90;;;5.00;99.90;;;;;;5033870;28;20476;-79
2022/01/25 08:12:15;;;;;;;39.60;22.87;;;5.10;99.90;;;;;;5036294;28;20486;-79
2022/01/25 08:14:43;;;;;;;37.93;23.60;;;5.20;99.90;;;;;;5036446;28;20462;-79
2022/01/25 08:17:10;;;;;;;40.07;26.07;;;5.10;99.90;;;;;;5036153;28;20456;-80
2022/01/25 08:19:37;;;;;;;41.73;22.97;;;4.90;99.90;;;;;;5040147;28;20582;-80
2022/01/25 08:22:06;;;;;;;39.40;24.07;;;5.00;99.90;;;;;;5039985;28;20468;-79
2022/01/25 08:24:32;;;;;;;40.00;23.23;;;4.90;99.90;;;;;;5038338;28;20460;-81
2022/01/25 08:26:59;;;;;;;34.10;23.13;;;4.90;99.90;;;;;;5037211;28;20462;-80
2022/01/25 08:29:26;;;;;;;33.07;21.90;;;4.90;99.90;;;;;;5038433;28;20932;-79
2022/01/25 08:31:53;;;;;;;35.43;21.90;;;5.00;99.90;;;;;;5038519;28;20450;-80
2022/01/25 08:34:20;;;;;;;33.47;22.40;;;5.00;99.90;;;;;;5039102;28;20482;-81
2022/01/25 08:36:46;;;;;;;38.60;25.80;;;5.10;99.90;;;;;;5038772;28;20842;-81
2022/01/25 08:39:16;;;;;;;39.53;26.97;;;5.10;99.90;;;;;;5038538;28;20487;-79
2022/01/25 08:41:43;;;;;;;44.03;26.27;;;5.20;99.90;;;;;;5039488;28;20536;-79
2022/01/25 08:44:10;;;;;;;45.17;25.90;;;5.10;99.90;;;;;;5039936;28;20451;-79
2022/01/25 08:46:36;;;;;;;44.93;26.10;;;5.10;99.90;;;;;;5038020;28;20459;-80
2022/01/25 08:49:04;;;;;;;48.90;27.03;;;5.10;99.90;;;;;;5038437;28;20456;-80
2022/01/25 08:51:30;;;;;;;55.73;32.03;;;5.10;99.90;;;;;;5037787;28;20442;-80
2022/01/25 08:53:59;;;;;;;50.13;26.57;;;5.20;99.90;;;;;;5039200;28;20477;-80
2022/01/25 08:56:27;;;;;;;46.40;27.03;;;5.10;99.90;;;;;;5039306;28;20451;-79
2022/01/25 08:58:54;;;;;;;48.60;28.20;;;5.10;99.90;;;;;;5038013;28;20484;-80
2022/01/25 09:01:22;;;;;;;48.20;30.30;;;5.20;99.90;;;;;;5039295;28;20468;-80
2022/01/25 09:03:49;;;;;;;51.63;28.57;;;5.10;99.90;;;;;;5039039;28;20490;-80
2022/01/25 09:06:16;;;;;;;47.60;27.40;;;5.10;99.90;;;;;;5038261;28;20511;-79
2022/01/25 09:08:43;;;;;;;52.37;29.50;;;5.20;99.90;;;;;;5037654;28;20444;-80
2022/01/25 09:11:10;;;;;;;48.07;28.50;;;5.10;99.90;;;;;;5034820;28;20484;-80
2022/01/25 09:13:39;;;;;;;55.20;32.10;;;5.10;99.90;;;;;;5037809;28;20487;-80
2022/01/25 09:16:06;;;;;;;54.07;31.00;;;5.20;99.90;;;;;;5038211;28;20540;-79
2022/01/25 09:18:35;;;;;;;49.60;28.60;;;5.20;99.90;;;;;;5038336;28;20536;-79
2022/01/25 09:21:02;;;;;;;44.20;26.90;;;5.10;99.90;;;;;;5037958;28;20474;-80
2022/01/25 09:23:29;;;;;;;44.60;28.30;;;5.20;99.90;;;;;;5038269;28;20923;-79
2022/01/25 09:25:56;;;;;;;53.07;30.00;;;5.30;99.90;;;;;;5035866;28;20463;-80
2022/01/25 09:28:23;;;;;;;44.83;26.77;;;5.30;99.90;;;;;;5036350;28;20467;-80
2022/01/25 09:30:51;;;;;;;43.97;26.77;;;5.20;99.90;;;;;;5035709;28;20479;-82
2022/01/25 09:33:18;;;;;;;52.33;30.00;;;5.40;99.90;;;;;;5036474;28;20884;-80
2022/01/25 09:35:45;;;;;;;53.27;31.30;;;5.40;99.90;;;;;;5037327;28;20459;-80
2022/01/25 09:38:12;;;;;;;55.80;33.23;;;5.40;99.90;;;;;;5037577;28;20482;-80
2022/01/25 09:40:39;;;;;;;52.57;28.50;;;5.40;99.90;;;;;;5036690;28;20483;-80
2022/01/25 09:43:07;;;;;;;51.60;29.73;;;5.50;99.90;;;;;;5036629;28;20565;-80
2022/01/25 09:45:35;;;;;;;46.73;28.97;;;5.50;99.90;;;;;;5036779;28;20458;-80
2022/01/25 09:48:05;;;;;;;55.70;31.43;;;5.60;99.90;;;;;;5035093;28;20451;-81
2022/01/25 09:50:32;;;;;;;48.60;29.50;;;5.60;99.90;;;;;;5035414;28;20575;-80
2022/01/25 09:53:00;;;;;;;53.93;31.87;;;5.60;99.90;;;;;;5036693;28;20452;-80
2022/01/25 09:55:30;;;;;;;51.10;30.03;;;5.70;99.90;;;;;;5037974;28;20901;-81
2022/01/25 09:57:57;;;;;;;59.43;34.43;;;5.60;99.90;;;;;;5037170;28;20468;-80
2022/01/25 10:00:29;;;;;;;56.27;31.57;;;5.60;99.90;;;;;;5036379;28;20865;-80
2022/01/25 10:03:04;;;;;;;61.33;32.70;;;5.60;99.90;;;;;;5035967;28;20451;-82
2022/01/25 10:05:36;;;;;;;60.97;33.37;;;5.50;99.90;;;;;;5036955;28;20534;-80
2022/01/25 10:08:05;;;;;;;55.27;31.90;;;5.40;99.90;;;;;;5036266;28;20450;-80
2022/01/25 10:10:34;;;;;;;56.37;32.20;;;5.40;99.90;;;;;;5036154;28;20480;-79
2022/01/25 10:13:10;;;;;;;57.67;31.40;;;5.40;99.90;;;;;;5035095;28;20458;-80
2022/01/25 10:15:37;;;;;;;57.57;30.87;;;5.40;99.90;;;;;;5036890;28;20499;-80
2022/01/25 10:18:05;;;;;;;54.30;32.17;;;5.50;99.90;;;;;;5037042;28;20475;-80
2022/01/25 10:20:35;;;;;;;64.10;33.00;;;5.50;99.90;;;;;;5036581;28;20483;-82
2022/01/25 10:23:09;;;;;;;54.57;32.23;;;5.50;99.90;;;;;;5040521;28;20449;-79
2022/01/25 10:25:38;;;;;;;55.57;33.00;;;5.40;99.90;;;;;;5041422;28;20455;-80
2022/01/25 10:28:11;;;;;;;57.83;31.00;;;5.40;99.90;;;;;;5036843;28;20455;-81
2022/01/25 10:30:41;;;;;;;54.33;32.13;;;5.40;99.90;;;;;;5036266;28;20891;-83
2022/01/25 10:33:25;;;;;;;61.63;31.93;;;5.50;99.90;;;;;;5036609;28;20729;-80
2022/01/25 10:35:55;;;;;;;51.67;29.30;;;5.40;99.90;;;;;;5036795;28;20483;-80
2022/01/25 10:38:25;;;;;;;50.80;29.00;;;5.50;99.90;;;;;;5036348;28;20554;-79
2022/01/25 10:40:58;;;;;;;54.37;33.83;;;5.60;99.90;;;;;;5035611;28;20901;-79
2022/01/25 10:43:25;;;;;;;61.97;34.50;;;5.70;99.90;;;;;;5036207;28;20458;-79
2022/01/25 10:46:13;;;;;;;50.97;30.60;;;5.50;99.90;;;;;;5036692;28;20461;-78
2022/01/25 10:48:42;;;;;;;56.50;33.43;;;5.60;99.90;;;;;;5036216;28;20439;-81
2022/01/25 10:51:12;;;;;;;54.77;31.90;;;5.70;99.90;;;;;;5036102;28;20526;-79
2022/01/25 10:53:40;;;;;;;58.23;31.77;;;5.80;99.90;;;;;;5035333;28;20520;-80
2022/01/25 10:56:09;;;;;;;59.23;34.30;;;5.80;99.90;;;;;;5037463;28;20486;-78
2022/01/25 10:58:41;;;;;;;43.40;29.20;;;5.70;99.90;;;;;;5036748;28;20511;-81
2022/01/25 11:01:10;;;;;;;59.10;30.87;;;5.70;99.90;;;;;;5036169;28;20537;-82
2022/01/25 11:03:40;;;;;;;48.43;30.00;;;5.60;99.90;;;;;;5033686;28;20886;-81
2022/01/25 11:06:16;;;;;;;50.90;29.87;;;5.60;99.90;;;;;;5029765;28;20539;-77
2022/01/25 11:08:46;;;;;;;51.30;30.93;;;5.60;99.90;;;;;;5024397;28;20451;-78
2022/01/25 11:11:23;;;;;;;48.20;29.73;;;5.70;99.90;;;;;;5033367;28;20582;-78
2022/01/25 11:13:52;;;;;;;49.17;28.03;;;5.60;99.90;;;;;;5033155;28;20485;-80
2022/01/25 11:16:19;;;;;;;46.27;29.60;;;5.60;99.90;;;;;;5034355;28;20535;-78
2022/01/25 11:18:46;;;;;;;47.70;27.67;;;5.70;99.90;;;;;;5033691;28;20924;-79
2022/01/25 11:21:14;;;;;;;50.27;29.37;;;5.70;99.90;;;;;;5033185;28;20472;-78
2022/01/25 11:23:43;;;;;;;48.70;29.83;;;5.80;99.90;;;;;;5033390;28;20502;-78
2022/01/25 11:26:14;;;;;;;45.97;24.77;;;5.70;99.90;;;;;;5035527;28;20485;-78
2022/01/25 11:28:42;;;;;;;47.37;28.07;;;5.60;99.90;;;;;;5034989;28;20979;-78
2022/01/25 11:31:12;;;;;;;43.20;27.20;;;5.50;99.90;;;;;;5032721;28;20474;-77
2022/01/25 11:33:44;;;;;;;40.67;24.33;;;5.70;99.90;;;;;;5032589;28;20466;-80
2022/01/25 11:36:11;;;;;;;48.13;27.60;;;5.80;99.90;;;;;;5033837;28;20486;-79
2022/01/25 11:38:43;;;;;;;46.17;29.13;;;5.80;99.90;;;;;;5033684;28;20983;-79
2022/01/25 11:41:12;;;;;;;44.47;28.10;;;5.60;99.90;;;;;;5034115;28;20578;-79
2022/01/25 11:43:39;;;;;;;46.87;28.87;;;5.70;99.90;;;;;;5033401;28;20486;-80
2022/01/25 11:46:08;;;;;;;50.23;28.50;;;5.80;99.90;;;;;;5034888;28;20467;-79
2022/01/25 11:48:38;;;;;;;51.17;28.70;;;5.70;99.90;;;;;;5034302;28;20462;-79
2022/01/25 11:51:13;;;;;;;46.33;26.60;;;5.80;99.90;;;;;;5033754;28;20509;-79
2022/01/25 11:53:44;;;;;;;46.80;29.37;;;5.60;99.90;;;;;;5033222;28;20453;-78
2022/01/25 11:56:13;;;;;;;43.83;26.27;;;5.70;99.90;;;;;;5034609;28;20458;-79
2022/01/25 11:58:40;;;;;;;45.20;27.07;;;5.80;99.90;;;;;;5035269;28;20459;-79
2022/01/25 12:01:17;;;;;;;46.53;29.03;;;5.90;99.90;;;;;;5035016;28;20477;-78
2022/01/25 12:03:46;;;;;;;47.77;27.97;;;5.80;99.90;;;;;;5032432;28;20468;-78
2022/01/25 12:06:19;;;;;;;48.83;28.00;;;5.90;99.90;;;;;;5034479;28;20495;-78
2022/01/25 12:09:07;;;;;;;52.87;28.97;;;5.80;99.90;;;;;;5034054;28;20467;-79
2022/01/25 12:11:38;;;;;;;48.80;26.00;;;5.80;99.90;;;;;;5031634;28;20452;-79
2022/01/25 12:14:16;;;;;;;30.97;17.77;;;5.80;99.90;;;;;;5026802;28;20517;-78
2022/01/25 12:16:45;;;;;;;30.63;20.13;;;9.20;99.90;;;;;;5021058;28;20449;-79
2022/01/25 12:19:13;;;;;;;43.60;29.40;;;10.10;99.90;;;;;;5032920;28;20980;-79
2022/01/25 12:22:04;;;;;;;37.87;24.90;;;9.10;99.90;;;;;;5038465;28;20242;-82
2022/01/25 12:24:36;;;;;;;37.03;25.40;;;8.80;99.90;;;;;;5041784;28;20973;-82
2022/01/25 12:27:07;;;;;;;40.50;26.83;;;8.20;99.90;;;;;;5043906;28;20464;-82
2022/01/25 12:29:38;;;;;;;39.57;26.10;;;7.60;99.90;;;;;;5043258;28;20477;-81
2022/01/25 12:32:19;;;;;;;44.00;27.00;;;7.30;99.90;;;;;;5033481;28;20454;-83
2022/01/25 12:35:07;;;;;;;37.70;24.60;;;6.90;99.90;;;;;;5054830;28;20450;-81
2022/01/25 12:37:56;;;;;;;38.80;25.87;;;6.80;99.90;;;;;;5019665;28;20544;-82
2022/01/25 12:40:34;;;;;;;39.60;25.77;;;6.50;99.90;;;;;;5025923;28;20523;-84
2022/01/25 12:43:03;;;;;;;47.37;29.17;;;6.40;99.90;;;;;;5035559;28;20993;-83
2022/01/25 12:45:32;;;;;;;39.83;25.60;;;6.10;99.90;;;;;;5031560;28;21017;-82
2022/01/25 12:48:06;;;;;;;35.83;22.70;;;6.10;99.90;;;;;;5028032;28;20471;-82
2022/01/25 12:50:35;;;;;;;37.50;23.37;;;6.10;99.90;;;;;;5034049;28;20480;-83
2022/01/25 12:53:03;;;;;;;42.23;25.73;;;6.20;99.90;;;;;;5030069;28;20458;-82
2022/01/25 12:55:35;;;;;;;40.13;26.30;;;6.20;99.90;;;;;;5036258;28;20439;-82
2022/01/25 12:58:05;;;;;;;41.90;24.80;;;5.80;99.90;;;;;;5032587;28;20460;-83
2022/01/25 13:00:34;;;;;;;39.37;25.30;;;5.90;99.90;;;;;;5031473;28;20497;-83
2022/01/25 13:03:19;;;;;;;39.87;24.37;;;6.00;99.90;;;;;;5039623;28;20463;-83
2022/01/25 13:05:48;;;;;;;42.53;24.07;;;6.10;99.90;;;;;;5041887;28;20481;-82
2022/01/25 13:08:21;;;;;;;39.50;26.40;;;5.90;99.90;;;;;;5041532;28;20902;-82
2022/01/25 13:10:50;;;;;;;38.63;23.57;;;5.80;99.90;;;;;;5042506;28;20488;-83
2022/01/25 13:13:28;;;;;;;42.20;26.60;;;5.90;99.90;;;;;;5043014;28;20463;-83
2022/01/25 13:15:59;;;;;;;42.60;24.87;;;5.90;99.90;;;;;;5040150;28;20458;-82
2022/01/25 13:18:31;;;;;;;42.87;25.13;;;5.80;99.90;;;;;;5038879;28;20554;-83
2022/01/25 13:21:07;;;;;;;38.17;24.47;;;5.80;99.90;;;;;;5039159;28;20483;-83
2022/01/25 13:23:34;;;;;;;39.50;24.53;;;5.80;99.90;;;;;;5038369;28;20462;-82
2022/01/25 13:26:14;;;;;;;39.20;25.57;;;5.90;99.90;;;;;;5038777;28;20464;-81
2022/01/25 13:28:54;;;;;;;47.63;26.47;;;5.90;99.90;;;;;;5038509;28;20466;-83
2022/01/25 13:31:24;;;;;;;44.47;27.57;;;5.70;99.90;;;;;;5039167;28;20577;-84
2022/01/25 13:33:53;;;;;;;40.30;26.40;;;5.70;99.90;;;;;;5038518;28;20458;-84
2022/01/25 13:36:22;;;;;;;46.20;27.83;;;5.70;99.90;;;;;;5042357;28;21022;-84
2022/01/25 13:38:50;;;;;;;47.50;27.33;;;5.60;99.90;;;;;;5047609;28;20474;-83
2022/01/25 13:41:22;;;;;;;42.20;25.50;;;5.60;99.90;;;;;;5043674;28;20497;-83
2022/01/25 13:46:38;;;;;;;39.90;26.23;;;5.80;99.90;;;;;;5036797;28;20455;-81
2022/01/25 13:49:08;;;;;;;44.10;27.10;;;5.90;99.90;;;;;;5040849;28;20452;-82
2022/01/25 13:51:42;;;;;;;44.30;25.63;;;5.70;99.90;;;;;;5040017;28;20463;-83
2022/01/25 13:54:13;;;;;;;44.50;24.47;;;5.80;99.90;;;;;;5035069;28;20472;-83
2022/01/25 13:56:42;;;;;;;42.70;25.60;;;5.80;99.90;;;;;;5032534;28;20561;-82
2022/01/25 13:59:10;;;;;;;44.37;25.90;;;5.80;99.90;;;;;;5037875;28;21026;-83